sensor_id;sensor_type;location;lat;lon;timestamp;temperature;humidity
19039;DHT22;9652;49.014;12.052;2022-12-18T00:01:22;1.40;68.90
19039;DHT22;9652;49.014;12.052;2022-12-18T00:03:51;1.40;68.90
19039;DHT22;9652;49.014;12.052;2022-12-18T00:06:20;1.40;68.90
19039;DHT22;9652;49.014;12.052;2022-12-18T00:08:48;1.50;69.00
19039;DHT22;9652;49.014;12.052;2022-12-18T00:11:18;1.50;68.90
19039;DHT22;9652;49.014;12.052;2022-12-18T00:13:47;1.50;68.90
19039;DHT22;9652;49.014;12.052;2022-12-18T00:16:16;1.50;68.80
19039;DHT22;9652;49.014;12.052;2022-12-18T00:18:47;1.50;68.80
19039;DHT22;9652;49.014;12.052;2022-12-18T00:21:15;1.50;68.80
19039;DHT22;9652;49.014;12.052;2022-12-18T00:23:44;1.50;68.90
19039;DHT22;9652;49.014;12.052;2022-12-18T00:26:13;1.50;68.80
19039;DHT22;9652;49.014;12.052;2022-12-18T00:28:44;1.50;68.90
19039;DHT22;9652;49.014;12.052;2022-12-18T00:31:13;1.50;69.00
19039;DHT22;9652;49.014;12.052;2022-12-18T00:33:43;1.50;68.90
19039;DHT22;9652;49.014;12.052;2022-12-18T00:36:14;1.50;68.80
19039;DHT22;9652;49.014;12.052;2022-12-18T00:38:44;1.50;68.70
19039;DHT22;9652;49.014;12.052;2022-12-18T00:41:14;1.50;68.60
19039;DHT22;9652;49.014;12.052;2022-12-18T00:44:06;1.50;68.70
19039;DHT22;9652;49.014;12.052;2022-12-18T00:46:33;1.50;68.70
19039;DHT22;9652;49.014;12.052;2022-12-18T00:49:00;1.50;68.70
19039;DHT22;9652;49.014;12.052;2022-12-18T00:51:28;1.50;68.70
19039;DHT22;9652;49.014;12.052;2022-12-18T00:53:56;1.50;68.70
19039;DHT22;9652;49.014;12.052;2022-12-18T00:56:23;1.50;68.60
19039;DHT22;9652;49.014;12.052;2022-12-18T00:58:52;1.50;68.60
19039;DHT22;9652;49.014;12.052;2022-12-18T01:01:21;1.50;68.60
19039;DHT22;9652;49.014;12.052;2022-12-18T01:03:48;1.50;68.70
19039;DHT22;9652;49.014;12.052;2022-12-18T01:06:16;1.50;68.70
19039;DHT22;9652;49.014;12.052;2022-12-18T01:08:44;1.50;68.80
19039;DHT22;9652;49.014;12.052;2022-12-18T01:11:14;1.50;68.80
19039;DHT22;9652;49.014;12.052;2022-12-18T01:13:43;1.50;68.80
19039;DHT22;9652;49.014;12.052;2022-12-18T01:16:11;1.50;68.70
19039;DHT22;9652;49.014;12.052;2022-12-18T01:18:40;1.50;68.70
19039;DHT22;9652;49.014;12.052;2022-12-18T01:21:10;1.60;68.90
19039;DHT22;9652;49.014;12.052;2022-12-18T01:23:39;1.60;68.90
19039;DHT22;9652;49.014;12.052;2022-12-18T01:26:07;1.60;68.90
19039;DHT22;9652;49.014;12.052;2022-12-18T01:28:35;1.60;68.90
19039;DHT22;9652;49.014;12.052;2022-12-18T01:31:16;1.60;69.00
19039;DHT22;9652;49.014;12.052;2022-12-18T01:33:47;1.60;68.90
19039;DHT22;9652;49.014;12.052;2022-12-18T01:36:16;1.70;68.90
19039;DHT22;9652;49.014;12.052;2022-12-18T01:38:45;1.70;68.90
19039;DHT22;9652;49.014;12.052;2022-12-18T01:41:14;1.70;68.80
19039;DHT22;9652;49.014;12.052;2022-12-18T01:43:45;1.70;68.80
19039;DHT22;9652;49.014;12.052;2022-12-18T01:46:15;1.70;68.80
19039;DHT22;9652;49.014;12.052;2022-12-18T01:48:45;1.70;68.80
19039;DHT22;9652;49.014;12.052;2022-12-18T01:51:16;1.80;68.80
19039;DHT22;9652;49.014;12.052;2022-12-18T01:53:45;1.80;68.80
19039;DHT22;9652;49.014;12.052;2022-12-18T01:56:15;1.80;68.80
19039;DHT22;9652;49.014;12.052;2022-12-18T01:58:50;1.80;68.80
19039;DHT22;9652;49.014;12.052;2022-12-18T02:01:22;1.80;68.80
19039;DHT22;9652;49.014;12.052;2022-12-18T02:03:52;1.80;68.70
19039;DHT22;9652;49.014;12.052;2022-12-18T02:06:23;1.80;68.80
19039;DHT22;9652;49.014;12.052;2022-12-18T02:09:02;1.80;68.90
19039;DHT22;9652;49.014;12.052;2022-12-18T02:11:42;1.80;68.90
19039;DHT22;9652;49.014;12.052;2022-12-18T02:14:21;1.80;68.80
19039;DHT22;9652;49.014;12.052;2022-12-18T02:17:00;1.80;69.60
19039;DHT22;9652;49.014;12.052;2022-12-18T02:19:47;1.80;69.10
19039;DHT22;9652;49.014;12.052;2022-12-18T02:22:37;1.90;68.90
19039;DHT22;9652;49.014;12.052;2022-12-18T02:25:23;1.90;69.10
19039;DHT22;9652;49.014;12.052;2022-12-18T02:28:02;1.90;68.80
19039;DHT22;9652;49.014;12.052;2022-12-18T02:30:34;1.90;68.80
19039;DHT22;9652;49.014;12.052;2022-12-18T02:33:06;1.90;68.80
19039;DHT22;9652;49.014;12.052;2022-12-18T02:35:36;1.90;68.80
19039;DHT22;9652;49.014;12.052;2022-12-18T02:38:07;1.90;68.80
19039;DHT22;9652;49.014;12.052;2022-12-18T02:40:37;1.90;68.70
19039;DHT22;9652;49.014;12.052;2022-12-18T02:43:09;1.90;68.50
19039;DHT22;9652;49.014;12.052;2022-12-18T02:45:46;1.90;68.50
19039;DHT22;9652;49.014;12.052;2022-12-18T02:48:16;1.90;68.40
19039;DHT22;9652;49.014;12.052;2022-12-18T02:50:53;1.90;68.40
19039;DHT22;9652;49.014;12.052;2022-12-18T02:53:33;1.90;68.40
19039;DHT22;9652;49.014;12.052;2022-12-18T02:56:11;1.90;68.60
19039;DHT22;9652;49.014;12.052;2022-12-18T02:58:53;1.90;68.50
19039;DHT22;9652;49.014;12.052;2022-12-18T03:01:45;1.90;68.40
19039;DHT22;9652;49.014;12.052;2022-12-18T03:04:24;1.90;68.40
19039;DHT22;9652;49.014;12.052;2022-12-18T03:06:56;1.80;68.30
19039;DHT22;9652;49.014;12.052;2022-12-18T03:09:31;1.90;68.40
19039;DHT22;9652;49.014;12.052;2022-12-18T03:12:06;1.90;68.40
19039;DHT22;9652;49.014;12.052;2022-12-18T03:14:59;1.80;68.30
19039;DHT22;9652;49.014;12.052;2022-12-18T03:17:33;1.80;68.40
19039;DHT22;9652;49.014;12.052;2022-12-18T03:20:05;1.80;68.40
19039;DHT22;9652;49.014;12.052;2022-12-18T03:22:37;1.80;68.40
19039;DHT22;9652;49.014;12.052;2022-12-18T03:25:07;1.80;68.50
19039;DHT22;9652;49.014;12.052;2022-12-18T03:27:42;1.90;68.50
19039;DHT22;9652;49.014;12.052;2022-12-18T03:30:17;1.90;68.40
19039;DHT22;9652;49.014;12.052;2022-12-18T03:32:48;1.80;68.30
19039;DHT22;9652;49.014;12.052;2022-12-18T03:35:26;1.80;68.30
19039;DHT22;9652;49.014;12.052;2022-12-18T03:37:56;1.80;68.30
19039;DHT22;9652;49.014;12.052;2022-12-18T03:40:31;1.80;68.30
19039;DHT22;9652;49.014;12.052;2022-12-18T03:43:10;1.80;68.40
19039;DHT22;9652;49.014;12.052;2022-12-18T03:45:49;1.80;68.30
19039;DHT22;9652;49.014;12.052;2022-12-18T03:48:27;2.00;68.40
19039;DHT22;9652;49.014;12.052;2022-12-18T03:51:07;1.90;68.40
19039;DHT22;9652;49.014;12.052;2022-12-18T03:53:43;1.90;68.40
19039;DHT22;9652;49.014;12.052;2022-12-18T03:56:21;1.90;68.30
19039;DHT22;9652;49.014;12.052;2022-12-18T03:58:54;1.80;68.10
19039;DHT22;9652;49.014;12.052;2022-12-18T04:01:31;1.80;68.10
19039;DHT22;9652;49.014;12.052;2022-12-18T04:04:02;1.80;68.10
19039;DHT22;9652;49.014;12.052;2022-12-18T04:06:34;1.80;68.10
19039;DHT22;9652;49.014;12.052;2022-12-18T04:09:04;1.80;68.20
19039;DHT22;9652;49.014;12.052;2022-12-18T04:11:36;1.80;68.30
19039;DHT22;9652;49.014;12.052;2022-12-18T04:14:04;1.80;68.30
19039;DHT22;9652;49.014;12.052;2022-12-18T04:16:33;1.80;68.40
19039;DHT22;9652;49.014;12.052;2022-12-18T04:19:03;1.80;68.40
19039;DHT22;9652;49.014;12.052;2022-12-18T04:21:37;1.80;68.40
19039;DHT22;9652;49.014;12.052;2022-12-18T04:24:05;1.90;68.60
19039;DHT22;9652;49.014;12.052;2022-12-18T04:26:35;1.80;68.60
19039;DHT22;9652;49.014;12.052;2022-12-18T04:29:31;1.90;69.40
19039;DHT22;9652;49.014;12.052;2022-12-18T04:32:00;1.90;68.60
19039;DHT22;9652;49.014;12.052;2022-12-18T04:34:29;1.90;69.30
19039;DHT22;9652;49.014;12.052;2022-12-18T04:36:57;1.90;68.60
19039;DHT22;9652;49.014;12.052;2022-12-18T04:39:24;1.90;68.40
19039;DHT22;9652;49.014;12.052;2022-12-18T04:41:55;1.90;68.40
19039;DHT22;9652;49.014;12.052;2022-12-18T04:44:22;1.90;68.40
19039;DHT22;9652;49.014;12.052;2022-12-18T04:46:49;1.90;68.40
19039;DHT22;9652;49.014;12.052;2022-12-18T04:49:18;2.00;68.40
19039;DHT22;9652;49.014;12.052;2022-12-18T04:51:45;2.00;68.40
19039;DHT22;9652;49.014;12.052;2022-12-18T04:54:12;2.00;68.30
19039;DHT22;9652;49.014;12.052;2022-12-18T04:56:39;2.00;68.30
19039;DHT22;9652;49.014;12.052;2022-12-18T04:59:06;2.00;68.10
19039;DHT22;9652;49.014;12.052;2022-12-18T05:01:33;1.90;68.10
19039;DHT22;9652;49.014;12.052;2022-12-18T05:04:00;1.90;68.10
19039;DHT22;9652;49.014;12.052;2022-12-18T05:06:29;1.90;68.30
19039;DHT22;9652;49.014;12.052;2022-12-18T05:08:56;1.90;68.10
19039;DHT22;9652;49.014;12.052;2022-12-18T05:11:23;1.90;68.10
19039;DHT22;9652;49.014;12.052;2022-12-18T05:13:50;1.90;67.90
19039;DHT22;9652;49.014;12.052;2022-12-18T05:16:17;1.90;68.00
19039;DHT22;9652;49.014;12.052;2022-12-18T05:18:45;1.90;68.00
19039;DHT22;9652;49.014;12.052;2022-12-18T05:21:12;1.90;68.10
19039;DHT22;9652;49.014;12.052;2022-12-18T05:23:40;1.90;68.10
19039;DHT22;9652;49.014;12.052;2022-12-18T05:26:08;1.90;68.10
19039;DHT22;9652;49.014;12.052;2022-12-18T05:28:36;1.90;68.10
19039;DHT22;9652;49.014;12.052;2022-12-18T05:31:04;1.90;68.10
19039;DHT22;9652;49.014;12.052;2022-12-18T05:33:33;1.90;68.10
19039;DHT22;9652;49.014;12.052;2022-12-18T05:36:02;1.90;68.10
19039;DHT22;9652;49.014;12.052;2022-12-18T05:38:32;1.90;67.90
19039;DHT22;9652;49.014;12.052;2022-12-18T05:41:02;1.90;68.00
19039;DHT22;9652;49.014;12.052;2022-12-18T05:43:30;1.90;67.90
19039;DHT22;9652;49.014;12.052;2022-12-18T05:45:57;1.90;67.90
19039;DHT22;9652;49.014;12.052;2022-12-18T05:48:29;1.90;68.70
19039;DHT22;9652;49.014;12.052;2022-12-18T05:51:03;1.90;67.90
19039;DHT22;9652;49.014;12.052;2022-12-18T05:53:32;1.90;67.60
19039;DHT22;9652;49.014;12.052;2022-12-18T05:56:02;1.90;67.60
19039;DHT22;9652;49.014;12.052;2022-12-18T05:58:31;1.80;67.50
19039;DHT22;9652;49.014;12.052;2022-12-18T06:01:07;1.80;67.70
19039;DHT22;9652;49.014;12.052;2022-12-18T06:03:36;1.80;67.70
19039;DHT22;9652;49.014;12.052;2022-12-18T06:06:03;1.80;67.70
19039;DHT22;9652;49.014;12.052;2022-12-18T06:08:30;1.80;67.60
19039;DHT22;9652;49.014;12.052;2022-12-18T06:10:58;1.70;67.60
19039;DHT22;9652;49.014;12.052;2022-12-18T06:13:26;1.70;67.60
19039;DHT22;9652;49.014;12.052;2022-12-18T06:15:53;1.70;67.60
19039;DHT22;9652;49.014;12.052;2022-12-18T06:18:20;1.70;67.60
19039;DHT22;9652;49.014;12.052;2022-12-18T06:20:54;1.70;67.60
19039;DHT22;9652;49.014;12.052;2022-12-18T06:23:22;1.60;67.60
19039;DHT22;9652;49.014;12.052;2022-12-18T06:25:49;1.60;67.60
19039;DHT22;9652;49.014;12.052;2022-12-18T06:28:17;1.60;67.70
19039;DHT22;9652;49.014;12.052;2022-12-18T06:30:46;1.60;67.70
19039;DHT22;9652;49.014;12.052;2022-12-18T06:33:15;1.60;67.60
19039;DHT22;9652;49.014;12.052;2022-12-18T06:35:42;1.60;67.70
19039;DHT22;9652;49.014;12.052;2022-12-18T06:38:09;1.50;67.50
19039;DHT22;9652;49.014;12.052;2022-12-18T06:40:37;1.50;67.60
19039;DHT22;9652;49.014;12.052;2022-12-18T06:43:05;1.50;67.60
19039;DHT22;9652;49.014;12.052;2022-12-18T06:45:33;1.50;67.70
19039;DHT22;9652;49.014;12.052;2022-12-18T06:48:02;1.50;67.80
19039;DHT22;9652;49.014;12.052;2022-12-18T06:50:29;1.50;67.90
19039;DHT22;9652;49.014;12.052;2022-12-18T06:52:56;1.40;67.90
19039;DHT22;9652;49.014;12.052;2022-12-18T06:55:23;1.50;68.10
19039;DHT22;9652;49.014;12.052;2022-12-18T06:57:50;1.40;68.00
19039;DHT22;9652;49.014;12.052;2022-12-18T07:00:18;1.50;68.00
19039;DHT22;9652;49.014;12.052;2022-12-18T07:02:45;1.50;68.00
19039;DHT22;9652;49.014;12.052;2022-12-18T07:05:14;1.50;67.90
19039;DHT22;9652;49.014;12.052;2022-12-18T07:07:41;1.50;67.80
19039;DHT22;9652;49.014;12.052;2022-12-18T07:10:09;1.50;67.80
19039;DHT22;9652;49.014;12.052;2022-12-18T07:12:36;1.40;67.70
19039;DHT22;9652;49.014;12.052;2022-12-18T07:15:04;1.40;67.80
19039;DHT22;9652;49.014;12.052;2022-12-18T07:17:32;1.40;68.00
19039;DHT22;9652;49.014;12.052;2022-12-18T07:19:59;1.40;68.00
19039;DHT22;9652;49.014;12.052;2022-12-18T07:22:28;1.40;68.10
19039;DHT22;9652;49.014;12.052;2022-12-18T07:24:55;1.40;68.10
19039;DHT22;9652;49.014;12.052;2022-12-18T07:27:22;1.40;68.00
19039;DHT22;9652;49.014;12.052;2022-12-18T07:29:50;1.40;68.00
19039;DHT22;9652;49.014;12.052;2022-12-18T07:32:17;1.40;68.00
19039;DHT22;9652;49.014;12.052;2022-12-18T07:34:44;1.40;68.00
19039;DHT22;9652;49.014;12.052;2022-12-18T07:37:11;1.40;68.10
19039;DHT22;9652;49.014;12.052;2022-12-18T07:39:39;1.40;68.20
19039;DHT22;9652;49.014;12.052;2022-12-18T07:42:06;1.40;68.20
19039;DHT22;9652;49.014;12.052;2022-12-18T07:44:51;1.40;68.30
19039;DHT22;9652;49.014;12.052;2022-12-18T07:47:18;1.50;68.30
19039;DHT22;9652;49.014;12.052;2022-12-18T07:49:45;1.50;68.30
19039;DHT22;9652;49.014;12.052;2022-12-18T07:52:12;1.50;68.40
19039;DHT22;9652;49.014;12.052;2022-12-18T07:54:41;1.50;68.40
19039;DHT22;9652;49.014;12.052;2022-12-18T07:57:08;1.50;68.50
19039;DHT22;9652;49.014;12.052;2022-12-18T07:59:35;1.50;68.40
19039;DHT22;9652;49.014;12.052;2022-12-18T08:02:03;1.60;68.50
19039;DHT22;9652;49.014;12.052;2022-12-18T08:04:30;1.60;68.40
19039;DHT22;9652;49.014;12.052;2022-12-18T08:06:57;1.60;68.30
19039;DHT22;9652;49.014;12.052;2022-12-18T08:09:24;1.60;68.30
19039;DHT22;9652;49.014;12.052;2022-12-18T08:11:52;1.70;68.30
19039;DHT22;9652;49.014;12.052;2022-12-18T08:14:20;1.70;68.40
19039;DHT22;9652;49.014;12.052;2022-12-18T08:16:47;1.80;68.50
19039;DHT22;9652;49.014;12.052;2022-12-18T08:19:14;1.70;68.40
19039;DHT22;9652;49.014;12.052;2022-12-18T08:21:41;1.70;68.30
19039;DHT22;9652;49.014;12.052;2022-12-18T08:24:09;1.70;68.20
19039;DHT22;9652;49.014;12.052;2022-12-18T08:26:36;1.80;68.30
19039;DHT22;9652;49.014;12.052;2022-12-18T08:29:05;1.80;68.10
19039;DHT22;9652;49.014;12.052;2022-12-18T08:31:32;1.80;68.10
19039;DHT22;9652;49.014;12.052;2022-12-18T08:34:00;1.90;68.20
19039;DHT22;9652;49.014;12.052;2022-12-18T08:36:27;1.80;68.20
19039;DHT22;9652;49.014;12.052;2022-12-18T08:38:54;1.90;68.20
19039;DHT22;9652;49.014;12.052;2022-12-18T08:41:23;1.90;68.20
19039;DHT22;9652;49.014;12.052;2022-12-18T08:43:50;2.00;68.10
19039;DHT22;9652;49.014;12.052;2022-12-18T08:46:38;1.90;68.10
19039;DHT22;9652;49.014;12.052;2022-12-18T08:49:08;2.00;68.10
19039;DHT22;9652;49.014;12.052;2022-12-18T08:51:37;2.00;68.10
19039;DHT22;9652;49.014;12.052;2022-12-18T08:54:05;2.10;68.10
19039;DHT22;9652;49.014;12.052;2022-12-18T08:56:33;2.10;67.90
19039;DHT22;9652;49.014;12.052;2022-12-18T08:59:00;2.10;67.80
19039;DHT22;9652;49.014;12.052;2022-12-18T09:01:28;2.10;67.60
19039;DHT22;9652;49.014;12.052;2022-12-18T09:03:57;2.10;67.70
19039;DHT22;9652;49.014;12.052;2022-12-18T09:06:24;2.10;67.80
19039;DHT22;9652;49.014;12.052;2022-12-18T09:08:52;2.10;67.70
19039;DHT22;9652;49.014;12.052;2022-12-18T09:11:21;2.10;67.70
19039;DHT22;9652;49.014;12.052;2022-12-18T09:13:49;2.20;67.70
19039;DHT22;9652;49.014;12.052;2022-12-18T09:16:17;2.30;67.90
19039;DHT22;9652;49.014;12.052;2022-12-18T09:18:45;2.40;68.00
19039;DHT22;9652;49.014;12.052;2022-12-18T09:21:16;2.30;67.90
19039;DHT22;9652;49.014;12.052;2022-12-18T09:23:49;2.30;67.90
19039;DHT22;9652;49.014;12.052;2022-12-18T09:26:17;2.40;67.80
19039;DHT22;9652;49.014;12.052;2022-12-18T09:28:45;2.40;67.90
19039;DHT22;9652;49.014;12.052;2022-12-18T09:31:12;2.40;67.60
19039;DHT22;9652;49.014;12.052;2022-12-18T09:33:40;2.40;67.50
19039;DHT22;9652;49.014;12.052;2022-12-18T09:36:12;2.50;67.60
19039;DHT22;9652;49.014;12.052;2022-12-18T09:38:42;2.50;67.50
19039;DHT22;9652;49.014;12.052;2022-12-18T09:41:21;2.50;67.50
19039;DHT22;9652;49.014;12.052;2022-12-18T09:44:15;2.50;67.30
19039;DHT22;9652;49.014;12.052;2022-12-18T09:47:03;2.50;67.40
19039;DHT22;9652;49.014;12.052;2022-12-18T09:49:58;2.60;67.40
19039;DHT22;9652;49.014;12.052;2022-12-18T09:52:33;2.60;67.50
19039;DHT22;9652;49.014;12.052;2022-12-18T09:55:11;2.60;67.30
19039;DHT22;9652;49.014;12.052;2022-12-18T09:57:51;2.60;67.30
19039;DHT22;9652;49.014;12.052;2022-12-18T10:00:23;2.70;67.20
19039;DHT22;9652;49.014;12.052;2022-12-18T10:02:56;2.70;67.30
19039;DHT22;9652;49.014;12.052;2022-12-18T10:05:35;2.70;67.30
19039;DHT22;9652;49.014;12.052;2022-12-18T10:08:13;2.80;67.30
19039;DHT22;9652;49.014;12.052;2022-12-18T10:10:50;2.80;67.30
19039;DHT22;9652;49.014;12.052;2022-12-18T10:13:24;2.80;67.30
19039;DHT22;9652;49.014;12.052;2022-12-18T10:16:13;2.90;67.00
19039;DHT22;9652;49.014;12.052;2022-12-18T10:21:59;2.90;66.50
19039;DHT22;9652;49.014;12.052;2022-12-18T10:24:41;2.90;66.60
19039;DHT22;9652;49.014;12.052;2022-12-18T10:27:14;2.90;66.50
19039;DHT22;9652;49.014;12.052;2022-12-18T10:29:44;2.90;66.60
19039;DHT22;9652;49.014;12.052;2022-12-18T10:32:15;3.00;66.80
19039;DHT22;9652;49.014;12.052;2022-12-18T10:34:48;3.00;66.60
19039;DHT22;9652;49.014;12.052;2022-12-18T10:37:18;3.00;66.60
19039;DHT22;9652;49.014;12.052;2022-12-18T10:40:07;3.00;66.50
19039;DHT22;9652;49.014;12.052;2022-12-18T10:42:37;3.00;66.00
19039;DHT22;9652;49.014;12.052;2022-12-18T10:45:10;3.00;66.30
19039;DHT22;9652;49.014;12.052;2022-12-18T10:47:42;3.10;66.20
19039;DHT22;9652;49.014;12.052;2022-12-18T10:50:20;3.10;66.20
19039;DHT22;9652;49.014;12.052;2022-12-18T10:52:55;3.10;66.00
19039;DHT22;9652;49.014;12.052;2022-12-18T10:55:30;3.10;66.10
19039;DHT22;9652;49.014;12.052;2022-12-18T10:58:15;3.00;66.10
19039;DHT22;9652;49.014;12.052;2022-12-18T11:01:05;3.10;65.70
19039;DHT22;9652;49.014;12.052;2022-12-18T11:03:38;3.00;66.40
19039;DHT22;9652;49.014;12.052;2022-12-18T11:06:10;3.00;66.00
19039;DHT22;9652;49.014;12.052;2022-12-18T11:08:39;3.00;66.10
19039;DHT22;9652;49.014;12.052;2022-12-18T11:11:20;3.00;66.00
19039;DHT22;9652;49.014;12.052;2022-12-18T11:14:00;3.00;65.80
19039;DHT22;9652;49.014;12.052;2022-12-18T11:16:33;3.00;65.80
19039;DHT22;9652;49.014;12.052;2022-12-18T11:19:17;3.00;66.00
19039;DHT22;9652;49.014;12.052;2022-12-18T11:21:55;3.00;66.00
19039;DHT22;9652;49.014;12.052;2022-12-18T11:24:28;3.10;66.20
19039;DHT22;9652;49.014;12.052;2022-12-18T11:27:01;3.10;66.10
19039;DHT22;9652;49.014;12.052;2022-12-18T11:29:34;3.10;66.00
19039;DHT22;9652;49.014;12.052;2022-12-18T11:32:33;3.10;65.80
19039;DHT22;9652;49.014;12.052;2022-12-18T11:35:10;3.10;65.60
19039;DHT22;9652;49.014;12.052;2022-12-18T11:37:47;3.10;65.80
19039;DHT22;9652;49.014;12.052;2022-12-18T11:40:19;3.10;65.70
19039;DHT22;9652;49.014;12.052;2022-12-18T11:42:58;3.10;65.60
19039;DHT22;9652;49.014;12.052;2022-12-18T11:45:31;3.10;65.40
19039;DHT22;9652;49.014;12.052;2022-12-18T11:48:05;3.10;65.60
19039;DHT22;9652;49.014;12.052;2022-12-18T11:50:48;3.10;65.70
19039;DHT22;9652;49.014;12.052;2022-12-18T11:53:18;3.10;65.60
19039;DHT22;9652;49.014;12.052;2022-12-18T11:55:54;3.20;65.90
19039;DHT22;9652;49.014;12.052;2022-12-18T11:58:44;3.20;65.80
19039;DHT22;9652;49.014;12.052;2022-12-18T12:01:22;3.20;65.60
19039;DHT22;9652;49.014;12.052;2022-12-18T12:04:33;3.30;65.90
19039;DHT22;9652;49.014;12.052;2022-12-18T12:07:25;3.30;65.40
19039;DHT22;9652;49.014;12.052;2022-12-18T12:10:12;3.30;65.70
19039;DHT22;9652;49.014;12.052;2022-12-18T12:13:00;3.40;65.70
19039;DHT22;9652;49.014;12.052;2022-12-18T12:15:45;3.40;65.50
19039;DHT22;9652;49.014;12.052;2022-12-18T12:18:31;3.40;65.30
19039;DHT22;9652;49.014;12.052;2022-12-18T12:21:11;3.40;65.00
19039;DHT22;9652;49.014;12.052;2022-12-18T12:23:49;3.30;65.00
19039;DHT22;9652;49.014;12.052;2022-12-18T12:26:25;3.30;64.90
19039;DHT22;9652;49.014;12.052;2022-12-18T12:29:06;3.30;65.20
19039;DHT22;9652;49.014;12.052;2022-12-18T12:31:55;3.40;65.40
19039;DHT22;9652;49.014;12.052;2022-12-18T12:34:34;3.40;65.40
19039;DHT22;9652;49.014;12.052;2022-12-18T12:37:20;3.40;65.40
19039;DHT22;9652;49.014;12.052;2022-12-18T12:39:54;3.40;65.20
19039;DHT22;9652;49.014;12.052;2022-12-18T12:42:29;3.50;65.30
19039;DHT22;9652;49.014;12.052;2022-12-18T12:45:23;3.50;64.90
19039;DHT22;9652;49.014;12.052;2022-12-18T12:47:57;3.50;64.70
19039;DHT22;9652;49.014;12.052;2022-12-18T12:50:26;3.40;64.70
19039;DHT22;9652;49.014;12.052;2022-12-18T12:52:55;3.40;64.70
19039;DHT22;9652;49.014;12.052;2022-12-18T12:55:26;3.40;64.70
19039;DHT22;9652;49.014;12.052;2022-12-18T12:58:00;3.40;64.80
19039;DHT22;9652;49.014;12.052;2022-12-18T13:00:39;3.30;64.80
19039;DHT22;9652;49.014;12.052;2022-12-18T13:03:21;3.30;64.90
19039;DHT22;9652;49.014;12.052;2022-12-18T13:05:58;3.30;64.90
19039;DHT22;9652;49.014;12.052;2022-12-18T13:08:31;3.40;65.30
19039;DHT22;9652;49.014;12.052;2022-12-18T13:11:32;3.40;65.10
19039;DHT22;9652;49.014;12.052;2022-12-18T13:14:23;3.40;64.70
19039;DHT22;9652;49.014;12.052;2022-12-18T13:17:15;3.40;64.80
19039;DHT22;9652;49.014;12.052;2022-12-18T13:19:49;3.40;64.40
19039;DHT22;9652;49.014;12.052;2022-12-18T13:22:22;3.40;64.40
19039;DHT22;9652;49.014;12.052;2022-12-18T13:24:51;3.30;64.40
19039;DHT22;9652;49.014;12.052;2022-12-18T13:27:46;3.30;64.50
19039;DHT22;9652;49.014;12.052;2022-12-18T13:30:48;3.30;64.20
19039;DHT22;9652;49.014;12.052;2022-12-18T13:33:41;3.30;64.20
19039;DHT22;9652;49.014;12.052;2022-12-18T13:36:16;3.20;64.20
19039;DHT22;9652;49.014;12.052;2022-12-18T13:39:20;3.20;64.40
19039;DHT22;9652;49.014;12.052;2022-12-18T13:41:51;3.20;64.20
19039;DHT22;9652;49.014;12.052;2022-12-18T13:44:30;3.20;64.60
19039;DHT22;9652;49.014;12.052;2022-12-18T13:47:00;3.20;64.40
19039;DHT22;9652;49.014;12.052;2022-12-18T13:49:36;3.10;64.40
19039;DHT22;9652;49.014;12.052;2022-12-18T13:52:18;3.20;64.50
19039;DHT22;9652;49.014;12.052;2022-12-18T13:54:51;3.10;64.30
19039;DHT22;9652;49.014;12.052;2022-12-18T13:57:27;3.10;64.40
19039;DHT22;9652;49.014;12.052;2022-12-18T13:59:56;3.10;64.00
19039;DHT22;9652;49.014;12.052;2022-12-18T14:02:25;3.10;63.90
19039;DHT22;9652;49.014;12.052;2022-12-18T14:04:54;3.00;63.80
19039;DHT22;9652;49.014;12.052;2022-12-18T14:07:24;3.00;63.80
19039;DHT22;9652;49.014;12.052;2022-12-18T14:09:54;2.90;63.80
19039;DHT22;9652;49.014;12.052;2022-12-18T14:12:24;2.90;63.80
19039;DHT22;9652;49.014;12.052;2022-12-18T14:15:23;2.80;63.80
19039;DHT22;9652;49.014;12.052;2022-12-18T14:17:57;2.80;63.70
19039;DHT22;9652;49.014;12.052;2022-12-18T14:20:26;2.80;63.80
19039;DHT22;9652;49.014;12.052;2022-12-18T14:22:58;2.70;63.80
19039;DHT22;9652;49.014;12.052;2022-12-18T14:25:27;2.60;63.80
19039;DHT22;9652;49.014;12.052;2022-12-18T14:28:12;2.60;63.70
19039;DHT22;9652;49.014;12.052;2022-12-18T14:30:44;2.60;63.60
19039;DHT22;9652;49.014;12.052;2022-12-18T14:33:13;2.50;63.60
19039;DHT22;9652;49.014;12.052;2022-12-18T14:35:43;2.50;63.50
19039;DHT22;9652;49.014;12.052;2022-12-18T14:38:24;2.40;63.40
19039;DHT22;9652;49.014;12.052;2022-12-18T14:40:55;2.30;63.30
19039;DHT22;9652;49.014;12.052;2022-12-18T14:43:24;2.20;63.30
19039;DHT22;9652;49.014;12.052;2022-12-18T14:45:52;2.10;63.30
19039;DHT22;9652;49.014;12.052;2022-12-18T14:48:21;2.10;63.50
19039;DHT22;9652;49.014;12.052;2022-12-18T14:50:58;2.10;63.50
19039;DHT22;9652;49.014;12.052;2022-12-18T14:53:38;1.90;63.40
19039;DHT22;9652;49.014;12.052;2022-12-18T14:56:18;1.90;63.50
19039;DHT22;9652;49.014;12.052;2022-12-18T14:58:48;1.80;63.60
19039;DHT22;9652;49.014;12.052;2022-12-18T15:01:23;1.80;63.70
19039;DHT22;9652;49.014;12.052;2022-12-18T15:03:54;1.70;63.70
19039;DHT22;9652;49.014;12.052;2022-12-18T15:06:27;1.60;63.70
19039;DHT22;9652;49.014;12.052;2022-12-18T15:08:58;1.60;63.70
19039;DHT22;9652;49.014;12.052;2022-12-18T15:11:45;1.50;63.80
19039;DHT22;9652;49.014;12.052;2022-12-18T15:14:38;1.50;63.90
19039;DHT22;9652;49.014;12.052;2022-12-18T15:17:16;1.40;63.80
19039;DHT22;9652;49.014;12.052;2022-12-18T15:19:47;1.40;63.90
19039;DHT22;9652;49.014;12.052;2022-12-18T15:22:20;1.30;63.90
19039;DHT22;9652;49.014;12.052;2022-12-18T15:24:50;1.30;64.10
19039;DHT22;9652;49.014;12.052;2022-12-18T15:27:25;1.20;64.10
19039;DHT22;9652;49.014;12.052;2022-12-18T15:33:22;1.20;64.20
19039;DHT22;9652;49.014;12.052;2022-12-18T15:35:56;1.10;65.10
19039;DHT22;9652;49.014;12.052;2022-12-18T15:38:24;1.10;64.30
19039;DHT22;9652;49.014;12.052;2022-12-18T15:40:54;1.10;64.40
19039;DHT22;9652;49.014;12.052;2022-12-18T15:43:26;1.10;64.40
19039;DHT22;9652;49.014;12.052;2022-12-18T15:46:05;1.10;64.40
19039;DHT22;9652;49.014;12.052;2022-12-18T15:48:34;0.80;64.30
19039;DHT22;9652;49.014;12.052;2022-12-18T15:51:08;1.00;64.30
19039;DHT22;9652;49.014;12.052;2022-12-18T15:53:38;0.90;64.30
19039;DHT22;9652;49.014;12.052;2022-12-18T15:56:09;1.00;64.30
19039;DHT22;9652;49.014;12.052;2022-12-18T15:58:55;0.90;64.30
19039;DHT22;9652;49.014;12.052;2022-12-18T16:01:24;0.80;64.30
19039;DHT22;9652;49.014;12.052;2022-12-18T16:03:52;0.80;64.30
19039;DHT22;9652;49.014;12.052;2022-12-18T16:06:20;0.80;64.40
19039;DHT22;9652;49.014;12.052;2022-12-18T16:08:47;0.70;64.30
19039;DHT22;9652;49.014;12.052;2022-12-18T16:11:22;0.70;64.40
19039;DHT22;9652;49.014;12.052;2022-12-18T16:14:05;0.70;64.40
19039;DHT22;9652;49.014;12.052;2022-12-18T16:16:33;0.70;64.40
19039;DHT22;9652;49.014;12.052;2022-12-18T16:19:00;0.60;64.40
19039;DHT22;9652;49.014;12.052;2022-12-18T16:21:27;0.60;64.30
19039;DHT22;9652;49.014;12.052;2022-12-18T16:23:54;0.60;64.40
19039;DHT22;9652;49.014;12.052;2022-12-18T16:26:23;0.60;64.40
19039;DHT22;9652;49.014;12.052;2022-12-18T16:28:50;0.50;64.40